Time;durP1;ratioP1;P1;durP2;ratioP2;P2;SDS_P1;SDS_P2;PMS_P1;PMS_P2;Temp;Humidity;BMP_temperature;BMP_pressure;BME280_temperature;BME280_humidity;BME280_pressure;Samples;Min_cycle;Max_cycle;Signal;HPM_P1;HPM_P2
2023/06/09 00:01:16;;;;;;;0.20;0.20;;;7.30;99.90;;;;;;5035883;28;20067;-74
2023/06/09 00:03:42;;;;;;;0.10;0.10;;;7.30;99.90;;;;;;5035794;28;20086;-74
2023/06/09 00:06:12;;;;;;;0.22;0.22;;;7.30;99.90;;;;;;5043559;28;20100;-73
2023/06/09 00:08:38;;;;;;;0.20;0.20;;;7.30;99.90;;;;;;5071016;28;20407;-74
2023/06/09 00:11:04;;;;;;;0.10;0.10;;;7.30;99.90;;;;;;5052330;28;20025;-74
2023/06/09 00:13:29;;;;;;;0.20;0.20;;;7.30;99.90;;;;;;5065347;28;20427;-74
2023/06/09 00:15:55;;;;;;;0.20;0.20;;;7.30;99.90;;;;;;5055403;28;20032;-74
2023/06/09 00:18:24;;;;;;;0.20;0.20;;;7.20;99.90;;;;;;5046636;28;20411;-74
2023/06/09 00:20:50;;;;;;;0.20;0.20;;;7.20;99.90;;;;;;5035763;28;20025;-74
2023/06/09 00:23:16;;;;;;;0.20;0.20;;;7.10;99.90;;;;;;5035542;28;20022;-74
2023/06/09 00:25:41;;;;;;;0.10;0.10;;;7.00;99.90;;;;;;5051260;28;20406;-74
2023/06/09 00:28:09;;;;;;;0.20;0.20;;;6.90;99.90;;;;;;5055248;28;20025;-73
2023/06/09 00:30:35;;;;;;;0.20;0.20;;;6.90;99.90;;;;;;5055675;28;20029;-74
2023/06/09 00:33:00;;;;;;;0.20;0.20;;;6.90;99.90;;;;;;5055356;28;20487;-74
2023/06/09 00:35:26;;;;;;;0.20;0.20;;;6.80;99.90;;;;;;5054999;28;20104;-74
2023/06/09 00:37:51;;;;;;;0.20;0.20;;;6.70;99.90;;;;;;5055191;28;20475;-74
2023/06/09 00:40:17;;;;;;;0.30;0.30;;;6.70;99.90;;;;;;5054858;28;20033;-73
2023/06/09 00:42:43;;;;;;;0.20;0.20;;;6.70;99.90;;;;;;5055158;28;20036;-73
2023/06/09 00:45:08;;;;;;;0.20;0.20;;;6.60;99.90;;;;;;5053608;28;20091;-74
2023/06/09 00:47:34;;;;;;;0.15;0.15;;;6.60;99.90;;;;;;5046655;28;20602;-74
2023/06/09 00:50:00;;;;;;;0.20;0.20;;;6.50;99.90;;;;;;5035398;28;20391;-74
2023/06/09 00:52:27;;;;;;;0.20;0.20;;;6.50;99.90;;;;;;5051730;28;20036;-74
2023/06/09 00:54:54;;;;;;;0.20;0.20;;;6.50;99.90;;;;;;5047261;28;20378;-73
2023/06/09 00:57:20;;;;;;;0.20;0.20;;;6.50;99.90;;;;;;5054800;28;20048;-74
2023/06/09 00:59:46;;;;;;;0.30;0.30;;;6.40;99.90;;;;;;5054742;28;20053;-74
2023/06/09 01:02:12;;;;;;;0.28;0.28;;;6.40;99.90;;;;;;5054564;28;20017;-74
2023/06/09 01:04:40;;;;;;;0.15;0.15;;;6.40;99.90;;;;;;5070117;28;20054;-74
2023/06/09 01:07:11;;;;;;;0.30;0.30;;;6.30;99.90;;;;;;5054692;28;20025;-74
2023/06/09 01:10:00;;;;;;;0.20;0.20;;;6.30;99.90;;;;;;5054662;28;20082;-74
2023/06/09 01:12:50;;;;;;;0.20;0.20;;;6.30;99.90;;;;;;5054952;28;20028;-74
2023/06/09 01:15:20;;;;;;;0.20;0.20;;;6.30;99.90;;;;;;5054329;28;20127;-74
2023/06/09 01:17:55;;;;;;;0.20;0.20;;;6.20;99.90;;;;;;5054871;28;20032;-73
2023/06/09 01:20:45;;;;;;;0.20;0.20;;;6.20;99.90;;;;;;5054398;28;20029;-74
2023/06/09 01:23:31;;;;;;;0.20;0.20;;;6.20;99.90;;;;;;5054639;28;20108;-74
2023/06/09 01:25:59;;;;;;;0.20;0.20;;;6.20;99.90;;;;;;5054400;28;20017;-73
2023/06/09 01:28:26;;;;;;;0.30;0.30;;;6.20;99.90;;;;;;5054118;28;20025;-74
2023/06/09 01:30:54;;;;;;;0.20;0.20;;;6.20;99.90;;;;;;5054167;28;20143;-73
2023/06/09 01:33:21;;;;;;;0.13;0.13;;;6.20;99.90;;;;;;5054384;28;20170;-75
2023/06/09 01:35:48;;;;;;;0.20;0.20;;;6.10;99.90;;;;;;5069398;28;20041;-75
2023/06/09 01:38:15;;;;;;;0.30;0.30;;;6.10;99.90;;;;;;5054333;28;20017;-75
2023/06/09 01:40:43;;;;;;;0.30;0.30;;;6.10;99.90;;;;;;5068994;28;20091;-75
2023/06/09 01:43:08;;;;;;;0.20;0.20;;;6.00;99.90;;;;;;5069577;28;20036;-74
2023/06/09 01:45:34;;;;;;;0.20;0.20;;;6.00;99.90;;;;;;5053708;28;20017;-75
2023/06/09 01:48:08;;;;;;;0.20;0.20;;;6.00;99.90;;;;;;5054530;28;20030;-74
2023/06/09 01:50:46;;;;;;;0.20;0.20;;;6.00;99.90;;;;;;5055532;28;20033;-74
2023/06/09 01:53:18;;;;;;;0.22;0.22;;;6.10;99.90;;;;;;5054144;28;20098;-74
2023/06/09 01:55:54;;;;;;;0.30;0.30;;;6.00;99.90;;;;;;5053334;28;20514;-75
2023/06/09 01:58:25;;;;;;;0.20;0.20;;;6.10;99.90;;;;;;5052476;28;20074;-75
2023/06/09 02:00:52;;;;;;;0.20;0.20;;;6.00;99.90;;;;;;5053652;28;20025;-75
2023/06/09 02:03:22;;;;;;;0.20;0.20;;;6.00;99.90;;;;;;5052974;28;20071;-75
2023/06/09 02:05:51;;;;;;;0.25;0.25;;;5.90;99.90;;;;;;5053687;28;20028;-75
2023/06/09 02:08:17;;;;;;;0.20;0.20;;;5.90;99.90;;;;;;5054009;28;20035;-75
2023/06/09 02:10:43;;;;;;;0.20;0.20;;;5.90;99.90;;;;;;5053210;28;20024;-75
2023/06/09 02:13:18;;;;;;;0.20;0.20;;;6.00;99.90;;;;;;5068745;28;20160;-75
2023/06/09 02:15:44;;;;;;;0.20;0.20;;;6.20;99.90;;;;;;5053077;28;20058;-76
2023/06/09 02:18:15;;;;;;;0.20;0.20;;;6.40;99.90;;;;;;5051617;28;20025;-75
2023/06/09 02:20:42;;;;;;;0.20;0.20;;;6.50;99.90;;;;;;5053282;28;20390;-75
2023/06/09 02:23:08;;;;;;;0.20;0.20;;;6.50;99.90;;;;;;5043977;28;20021;-76
2023/06/09 02:25:34;;;;;;;0.20;0.20;;;6.50;99.90;;;;;;5035254;28;20080;-76
2023/06/09 02:28:03;;;;;;;0.20;0.20;;;6.50;99.90;;;;;;5068551;28;20021;-75
2023/06/09 02:30:29;;;;;;;0.20;0.20;;;6.40;99.90;;;;;;5050452;28;20021;-76
2023/06/09 02:32:55;;;;;;;0.20;0.20;;;6.40;99.90;;;;;;5033249;28;20033;-75
2023/06/09 02:35:21;;;;;;;0.30;0.30;;;6.40;99.90;;;;;;5032778;28;20043;-75
2023/06/09 02:37:47;;;;;;;0.20;0.20;;;6.40;99.90;;;;;;5049630;28;20029;-76
2023/06/09 02:40:13;;;;;;;0.20;0.20;;;6.40;99.90;;;;;;5052730;28;20028;-75
2023/06/09 02:42:39;;;;;;;0.28;0.28;;;6.40;99.90;;;;;;5080141;23;20046;-70
2023/06/09 02:45:06;;;;;;;0.20;0.20;;;6.50;99.90;;;;;;5013713;28;20090;-69
2023/06/09 02:47:32;;;;;;;0.20;0.20;;;6.50;99.90;;;;;;5013133;28;20113;-70
2023/06/09 02:49:57;;;;;;;0.20;0.20;;;6.60;99.90;;;;;;5013154;28;20503;-70
2023/06/09 02:52:23;;;;;;;0.20;0.20;;;6.70;99.90;;;;;;5013213;28;20033;-70
2023/06/09 02:54:48;;;;;;;0.20;0.20;;;6.70;99.90;;;;;;5013389;28;20032;-70
2023/06/09 02:57:14;;;;;;;0.20;0.20;;;6.70;99.90;;;;;;5013142;28;20026;-70
2023/06/09 02:59:40;;;;;;;0.20;0.20;;;6.80;99.90;;;;;;5011940;28;20069;-70
2023/06/09 03:02:08;;;;;;;0.15;0.15;;;6.90;99.90;;;;;;5011618;28;20494;-70
2023/06/09 03:04:35;;;;;;;0.20;0.20;;;7.00;99.90;;;;;;5003772;28;20030;-70
2023/06/09 03:07:01;;;;;;;0.20;0.20;;;7.10;99.90;;;;;;4993998;28;20031;-69
2023/06/09 03:09:26;;;;;;;0.20;0.20;;;7.10;99.90;;;;;;4995810;28;20033;-70
2023/06/09 03:11:52;;;;;;;0.20;0.20;;;7.20;99.90;;;;;;5013043;28;20032;-70
2023/06/09 03:14:17;;;;;;;0.20;0.20;;;7.20;99.90;;;;;;5014359;28;20101;-70
2023/06/09 03:16:43;;;;;;;0.20;0.20;;;7.20;99.90;;;;;;5017275;28;20068;-70
2023/06/09 03:19:09;;;;;;;0.20;0.20;;;7.30;99.90;;;;;;5017042;28;20041;-72
2023/06/09 03:21:36;;;;;;;0.20;0.20;;;7.30;99.90;;;;;;5004347;28;20033;-72
2023/06/09 03:24:06;;;;;;;0.20;0.20;;;7.30;99.90;;;;;;4996932;28;20023;-72
2023/06/09 03:26:31;;;;;;;0.17;0.17;;;7.40;99.90;;;;;;5007231;28;20025;-73
2023/06/09 03:28:57;;;;;;;0.20;0.20;;;7.40;99.90;;;;;;5015518;28;20026;-72
2023/06/09 03:31:22;;;;;;;0.30;0.30;;;7.50;99.90;;;;;;5016612;28;20510;-72
2023/06/09 03:33:48;;;;;;;0.20;0.20;;;7.60;99.90;;;;;;5016933;28;20030;-71
2023/06/09 03:36:13;;;;;;;0.20;0.20;;;7.50;99.90;;;;;;5016477;28;20487;-70
2023/06/09 03:38:39;;;;;;;0.30;0.30;;;7.60;99.90;;;;;;4999531;28;20035;-70
2023/06/09 03:41:05;;;;;;;0.10;0.10;;;7.60;99.90;;;;;;4996827;28;20100;-70
2023/06/09 03:43:31;;;;;;;0.30;0.30;;;7.70;99.90;;;;;;5005365;28;20038;-70
2023/06/09 03:45:57;;;;;;;0.20;0.20;;;7.70;99.90;;;;;;5016572;28;20476;-70
2023/06/09 03:48:22;;;;;;;0.30;0.30;;;7.70;99.90;;;;;;5012441;28;20032;-70
2023/06/09 03:50:48;;;;;;;0.30;0.30;;;7.60;99.90;;;;;;4996944;28;20058;-70
2023/06/09 03:53:13;;;;;;;0.20;0.20;;;7.70;99.90;;;;;;4996967;28;20101;-70
2023/06/09 03:55:39;;;;;;;0.20;0.20;;;7.70;99.90;;;;;;4996696;28;20038;-70
2023/06/09 03:58:06;;;;;;;0.20;0.20;;;7.70;99.90;;;;;;4997227;28;20084;-70
2023/06/09 04:00:31;;;;;;;0.22;0.22;;;7.80;99.90;;;;;;4996693;28;20507;-70
2023/06/09 04:02:57;;;;;;;0.20;0.20;;;7.70;99.90;;;;;;4998694;28;20034;-70
2023/06/09 04:05:24;;;;;;;0.22;0.22;;;7.80;99.90;;;;;;4996485;28;20026;-70
2023/06/09 04:07:49;;;;;;;0.20;0.20;;;7.90;99.90;;;;;;5002144;28;20013;-70
2023/06/09 04:10:15;;;;;;;0.20;0.20;;;7.90;99.90;;;;;;5016500;28;20464;-70
2023/06/09 04:12:41;;;;;;;0.20;0.20;;;7.90;99.90;;;;;;5011225;28;20028;-70
2023/06/09 04:15:08;;;;;;;0.20;0.20;;;8.00;99.90;;;;;;4995118;28;20492;-70
2023/06/09 04:17:36;;;;;;;0.20;0.20;;;8.00;99.90;;;;;;4998829;28;20032;-70
2023/06/09 04:20:04;;;;;;;0.20;0.20;;;8.00;99.90;;;;;;4994934;28;20027;-70
2023/06/09 04:22:30;;;;;;;0.20;0.20;;;8.10;99.90;;;;;;4995980;28;20103;-70
2023/06/09 04:24:56;;;;;;;0.13;0.13;;;8.20;99.90;;;;;;4996100;28;20076;-70
2023/06/09 04:27:23;;;;;;;0.20;0.20;;;8.20;99.90;;;;;;4998274;28;20447;-70
2023/06/09 04:29:49;;;;;;;0.20;0.20;;;8.10;99.90;;;;;;4996188;28;20499;-70
2023/06/09 04:32:16;;;;;;;0.20;0.20;;;8.20;99.90;;;;;;4997824;28;20022;-70
2023/06/09 04:34:45;;;;;;;0.20;0.20;;;8.20;99.90;;;;;;4994929;28;20488;-70
2023/06/09 04:37:12;;;;;;;0.17;0.17;;;8.30;99.90;;;;;;4995840;28;20031;-70
2023/06/09 04:39:41;;;;;;;0.30;0.30;;;8.50;99.90;;;;;;4995844;28;20415;-70
2023/06/09 04:42:11;;;;;;;0.10;0.10;;;8.50;99.90;;;;;;4994181;28;20076;-70
2023/06/09 04:44:37;;;;;;;0.20;0.20;;;8.60;99.90;;;;;;4996078;28;20052;-70
2023/06/09 04:47:05;;;;;;;0.20;0.20;;;8.70;99.90;;;;;;4996081;28;20052;-70
2023/06/09 04:49:31;;;;;;;0.20;0.20;;;8.80;99.90;;;;;;4995952;28;20030;-70
2023/06/09 04:51:59;;;;;;;0.17;0.17;;;8.80;99.90;;;;;;4995908;28;20026;-70
2023/06/09 04:54:28;;;;;;;0.20;0.20;;;8.90;99.90;;;;;;4995939;28;20403;-70
2023/06/09 04:56:57;;;;;;;0.20;0.20;;;8.90;99.90;;;;;;4995946;28;20026;-70
2023/06/09 04:59:24;;;;;;;0.10;0.10;;;8.80;99.90;;;;;;4995775;28;20026;-70
2023/06/09 05:01:52;;;;;;;0.20;0.20;;;8.80;99.90;;;;;;4995820;28;20042;-70
2023/06/09 05:04:18;;;;;;;0.20;0.20;;;9.00;99.90;;;;;;4995618;28;20022;-71
2023/06/09 05:06:44;;;;;;;0.22;0.22;;;9.10;99.90;;;;;;4994490;28;20076;-71
2023/06/09 05:09:10;;;;;;;0.20;0.20;;;9.20;99.90;;;;;;4995588;28;20550;-70
2023/06/09 05:11:36;;;;;;;0.20;0.20;;;9.20;99.90;;;;;;4994339;28;20034;-70
2023/06/09 05:14:02;;;;;;;0.10;0.10;;;9.20;99.90;;;;;;4995716;28;20361;-70
2023/06/09 05:16:28;;;;;;;0.20;0.20;;;9.20;99.90;;;;;;4995464;28;20484;-70
2023/06/09 05:18:55;;;;;;;0.20;0.20;;;9.20;99.90;;;;;;4995347;28;20507;-70
2023/06/09 05:21:24;;;;;;;0.20;0.20;;;9.30;99.90;;;;;;4995430;28;20025;-70
2023/06/09 05:23:50;;;;;;;0.10;0.10;;;9.40;99.90;;;;;;4994214;28;20388;-70
2023/06/09 05:26:17;;;;;;;0.20;0.20;;;9.50;99.90;;;;;;4995611;28;20407;-70
2023/06/09 05:28:43;;;;;;;0.20;0.20;;;9.50;99.90;;;;;;4994245;28;20026;-70
2023/06/09 05:31:08;;;;;;;0.10;0.10;;;9.50;99.90;;;;;;4995218;28;20030;-70
2023/06/09 05:33:34;;;;;;;0.15;0.15;;;9.50;99.90;;;;;;4995087;28;20498;-70
2023/06/09 05:35:59;;;;;;;0.10;0.10;;;9.60;99.90;;;;;;4993629;28;20045;-70
2023/06/09 05:38:25;;;;;;;0.10;0.10;;;9.80;99.90;;;;;;4994747;28;20022;-70
2023/06/09 05:40:51;;;;;;;0.20;0.20;;;9.90;99.90;;;;;;4994967;28;20476;-70
2023/06/09 05:43:17;;;;;;;0.13;0.13;;;10.10;99.90;;;;;;4994954;28;20022;-70
2023/06/09 05:45:43;;;;;;;0.17;0.17;;;10.20;99.90;;;;;;4994940;28;20037;-70
2023/06/09 05:48:08;;;;;;;0.25;0.25;;;10.30;99.90;;;;;;4995411;28;20053;-70
2023/06/09 05:50:34;;;;;;;0.20;0.20;;;10.40;99.90;;;;;;4994174;28;20030;-71
2023/06/09 05:52:59;;;;;;;0.10;0.10;;;10.50;99.90;;;;;;4994723;28;20027;-70
2023/06/09 05:55:25;;;;;;;0.10;0.10;;;10.50;99.90;;;;;;4994748;28;20027;-70
2023/06/09 05:57:51;;;;;;;0.20;0.20;;;10.50;99.90;;;;;;4994944;28;20030;-70
2023/06/09 06:00:17;;;;;;;0.20;0.20;;;10.60;99.90;;;;;;4994603;28;20065;-70
2023/06/09 06:02:44;;;;;;;0.20;0.20;;;10.70;99.90;;;;;;4994468;28;20022;-70
2023/06/09 06:05:11;;;;;;;0.10;0.10;;;10.70;99.90;;;;;;4994555;28;20487;-70
2023/06/09 06:07:37;;;;;;;0.10;0.10;;;10.80;99.90;;;;;;4994485;28;20019;-70
2023/06/09 06:10:04;;;;;;;0.10;0.10;;;10.80;99.90;;;;;;4993687;28;20137;-70
2023/06/09 06:12:31;;;;;;;0.10;0.10;;;10.80;99.90;;;;;;4997001;28;20034;-70
2023/06/09 06:14:56;;;;;;;0.20;0.20;;;11.10;99.90;;;;;;4998839;28;20030;-71
2023/06/09 06:17:22;;;;;;;0.20;0.20;;;11.20;99.90;;;;;;5012464;28;20506;-70
2023/06/09 06:19:47;;;;;;;0.10;0.10;;;11.40;99.90;;;;;;5013453;28;20034;-70
2023/06/09 06:22:13;;;;;;;0.17;0.17;;;11.60;99.90;;;;;;5013544;28;20507;-70
2023/06/09 06:24:38;;;;;;;0.20;0.20;;;11.60;99.90;;;;;;5013006;28;20053;-70
2023/06/09 06:27:05;;;;;;;0.30;0.30;;;11.70;99.90;;;;;;5003640;28;20030;-70
2023/06/09 06:29:31;;;;;;;0.30;0.30;;;11.80;99.90;;;;;;5013057;28;20069;-70
2023/06/09 06:31:57;;;;;;;0.10;0.10;;;11.90;99.90;;;;;;5003011;28;20153;-70
2023/06/09 06:34:25;;;;;;;0.20;0.20;;;12.00;99.90;;;;;;4994108;28;20109;-70
2023/06/09 06:36:50;;;;;;;0.10;0.10;;;12.10;99.90;;;;;;4992660;28;20071;-70
2023/06/09 06:39:16;;;;;;;0.20;0.20;;;12.20;99.90;;;;;;4993877;28;20109;-71
2023/06/09 06:41:41;;;;;;;0.17;0.17;;;12.10;99.90;;;;;;5008297;28;20030;-70
2023/06/09 06:44:07;;;;;;;0.10;0.10;;;12.10;99.90;;;;;;5013257;28;20053;-70
2023/06/09 06:46:32;;;;;;;0.20;0.20;;;12.00;99.90;;;;;;4999210;28;20036;-70
2023/06/09 06:48:58;;;;;;;0.20;0.20;;;11.90;99.90;;;;;;4993129;28;20542;-70
2023/06/09 06:51:23;;;;;;;0.20;0.20;;;11.90;99.90;;;;;;4994070;28;20022;-70
2023/06/09 06:53:49;;;;;;;0.20;0.20;;;12.20;99.90;;;;;;4993724;28;20113;-70
2023/06/09 06:56:15;;;;;;;0.17;0.17;;;12.40;99.90;;;;;;4993835;28;20033;-70
2023/06/09 06:58:40;;;;;;;0.10;0.10;;;12.60;99.90;;;;;;5012626;28;20018;-70
2023/06/09 07:01:06;;;;;;;0.10;0.10;;;13.00;99.90;;;;;;5013693;28;20365;-70
2023/06/09 07:03:33;;;;;;;0.20;0.20;;;13.30;99.90;;;;;;5012981;28;20105;-70
2023/06/09 07:05:58;;;;;;;0.20;0.20;;;13.50;99.90;;;;;;5013278;28;20026;-70
2023/06/09 07:08:24;;;;;;;0.20;0.20;;;13.50;99.90;;;;;;5012786;28;20014;-70
2023/06/09 07:10:49;;;;;;;0.20;0.20;;;13.60;99.90;;;;;;5013406;28;20026;-71
2023/06/09 07:13:16;;;;;;;0.20;0.20;;;13.60;99.90;;;;;;5013150;28;20391;-70
2023/06/09 07:15:41;;;;;;;0.20;0.20;;;13.70;99.90;;;;;;5013058;28;20093;-70
2023/06/09 07:18:07;;;;;;;0.20;0.20;;;13.70;99.90;;;;;;5013011;28;20484;-71
2023/06/09 07:20:33;;;;;;;0.20;0.20;;;13.70;99.90;;;;;;5012978;28;20030;-70
2023/06/09 07:22:59;;;;;;;0.20;0.20;;;14.00;99.90;;;;;;4999096;28;20407;-70
2023/06/09 07:25:25;;;;;;;0.10;0.10;;;14.20;99.90;;;;;;4993400;28;20117;-70
2023/06/09 07:27:51;;;;;;;0.10;0.10;;;14.30;99.90;;;;;;5004096;28;20024;-70
2023/06/09 07:30:16;;;;;;;0.20;0.20;;;14.40;99.90;;;;;;5003194;28;20022;-70
2023/06/09 07:32:43;;;;;;;0.10;0.10;;;14.60;99.90;;;;;;5008839;28;20022;-71
2023/06/09 07:35:13;;;;;;;0.20;0.20;;;14.90;99.90;;;;;;5004599;28;20030;-71
2023/06/09 07:37:40;;;;;;;0.10;0.10;;;15.10;99.90;;;;;;5013003;28;20084;-71
2023/06/09 07:40:07;;;;;;;0.20;0.20;;;15.30;99.90;;;;;;5012046;28;20113;-70
2023/06/09 07:42:33;;;;;;;0.10;0.10;;;15.40;99.90;;;;;;5003380;28;20041;-71
2023/06/09 07:44:58;;;;;;;0.10;0.10;;;15.60;99.90;;;;;;4995945;28;20037;-70
2023/06/09 07:47:24;;;;;;;0.10;0.10;;;16.00;99.90;;;;;;5012903;28;20105;-71
2023/06/09 07:49:49;;;;;;;0.10;0.10;;;16.20;99.90;;;;;;5012668;28;20458;-71
2023/06/09 07:52:15;;;;;;;0.20;0.20;;;16.20;99.90;;;;;;5012856;28;20026;-71
2023/06/09 07:54:41;;;;;;;0.20;0.20;;;16.40;99.90;;;;;;5010280;28;20603;-71
2023/06/09 07:57:07;;;;;;;0.15;0.15;;;16.60;99.90;;;;;;5012768;28;20080;-71
2023/06/09 07:59:32;;;;;;;0.10;0.10;;;16.60;99.90;;;;;;4994789;28;20407;-71
2023/06/09 08:01:58;;;;;;;0.20;0.20;;;16.80;99.90;;;;;;5008705;28;20037;-71
2023/06/09 08:04:23;;;;;;;0.10;0.10;;;17.00;99.90;;;;;;4997632;28;20030;-71
2023/06/09 08:06:49;;;;;;;0.20;0.20;;;17.30;99.90;;;;;;5011020;28;20022;-71
2023/06/09 08:09:14;;;;;;;0.10;0.10;;;17.40;99.90;;;;;;5016150;28;20034;-71
2023/06/09 08:11:40;;;;;;;0.10;0.10;;;17.60;99.90;;;;;;5013968;28;20026;-71
2023/06/09 08:14:08;;;;;;;0.15;0.15;;;17.80;99.90;;;;;;5006147;28;20105;-71
2023/06/09 08:16:35;;;;;;;0.10;0.10;;;18.10;99.90;;;;;;4996394;28;20455;-71
2023/06/09 08:19:00;;;;;;;0.10;0.10;;;18.40;99.90;;;;;;4995119;28;20069;-71
2023/06/09 08:21:26;;;;;;;0.20;0.20;;;18.60;99.90;;;;;;4996362;28;20026;-71
2023/06/09 08:23:52;;;;;;;0.10;0.10;;;18.90;99.90;;;;;;4995048;28;20023;-72
2023/06/09 08:26:18;;;;;;;0.10;0.10;;;19.20;99.90;;;;;;5005186;28;20029;-71
2023/06/09 08:28:43;;;;;;;0.10;0.10;;;19.60;99.90;;;;;;5016217;28;20467;-72
2023/06/09 08:31:09;;;;;;;0.20;0.20;;;19.90;99.90;;;;;;5014452;28;20029;-71
2023/06/09 08:33:36;;;;;;;0.10;0.10;;;20.00;99.90;;;;;;5015661;28;20057;-72
2023/06/09 08:36:03;;;;;;;0.10;0.10;;;20.10;99.90;;;;;;5014385;28;20108;-72
2023/06/09 08:38:32;;;;;;;0.10;0.10;;;20.20;99.90;;;;;;5015724;28;20026;-71
2023/06/09 08:41:04;;;;;;;0.10;0.10;;;20.40;99.90;;;;;;5015932;28;20388;-72
2023/06/09 08:43:31;;;;;;;0.10;0.10;;;20.60;99.90;;;;;;5062721;22;20052;-70
2023/06/09 08:45:59;;;;;;;0.10;0.10;;;20.80;99.90;;;;;;5055251;28;20027;-70
2023/06/09 08:48:28;;;;;;;0.10;0.10;;;20.90;99.90;;;;;;5055511;28;20482;-69
2023/06/09 08:50:55;;;;;;;0.03;0.03;;;20.80;99.90;;;;;;5038430;28;20033;-70
2023/06/09 08:53:21;;;;;;;0.00;0.00;;;21.00;99.90;;;;;;5035217;28;20052;-69
2023/06/09 08:55:48;;;;;;;0.10;0.10;;;21.10;99.90;;;;;;5035114;28;20025;-70
2023/06/09 08:58:15;;;;;;;0.10;0.10;;;21.30;99.90;;;;;;5035207;28;20064;-70
2023/06/09 09:00:41;;;;;;;0.10;0.10;;;21.40;99.90;;;;;;5034967;28;20084;-69
2023/06/09 09:03:07;;;;;;;0.10;0.10;;;21.60;99.90;;;;;;5034968;28;20022;-70
2023/06/09 09:05:32;;;;;;;0.08;0.08;;;21.80;99.90;;;;;;5035094;28;20028;-70
2023/06/09 09:07:58;;;;;;;0.00;0.00;;;22.20;99.90;;;;;;5035077;28;20557;-70
2023/06/09 09:10:24;;;;;;;0.00;0.00;;;22.70;99.90;;;;;;5034854;28;20088;-70
2023/06/09 09:12:51;;;;;;;0.00;0.00;;;22.90;99.90;;;;;;5031580;28;20041;-70
2023/06/09 09:15:17;;;;;;;0.00;0.00;;;23.00;99.90;;;;;;5021912;28;20033;-70
2023/06/09 09:17:47;;;;;;;0.10;0.10;;;23.10;99.90;;;;;;5015006;28;20053;-70
2023/06/09 09:20:14;;;;;;;0.10;0.10;;;23.20;99.90;;;;;;5014989;28;20025;-70
2023/06/09 09:22:50;;;;;;;0.00;0.00;;;23.20;99.90;;;;;;5014973;28;20049;-70
2023/06/09 09:25:27;;;;;;;0.08;0.08;;;23.40;99.90;;;;;;5016289;28;20032;-70
2023/06/09 09:28:10;;;;;;;0.00;0.00;;;23.60;99.90;;;;;;5034607;28;20021;-70
2023/06/09 09:30:48;;;;;;;0.10;0.10;;;23.80;99.90;;;;;;5034743;28;20029;-70
2023/06/09 09:33:22;;;;;;;0.00;0.00;;;24.10;99.90;;;;;;5034475;28;20579;-70
2023/06/09 09:35:59;;;;;;;0.00;0.00;;;24.40;99.90;;;;;;5033042;28;20071;-70
2023/06/09 09:38:27;;;;;;;0.00;0.00;;;24.80;99.90;;;;;;5034464;28;20026;-70
2023/06/09 09:40:54;;;;;;;0.00;0.00;;;25.10;99.90;;;;;;5034530;28;20038;-70
2023/06/09 09:43:24;;;;;;;0.00;0.00;;;25.30;99.90;;;;;;5033214;28;20029;-70
2023/06/09 09:45:54;;;;;;;0.00;0.00;;;25.20;99.90;;;;;;5027331;28;20033;-70
2023/06/09 09:48:24;;;;;;;0.00;0.00;;;25.70;99.90;;;;;;5014754;28;20033;-71
2023/06/09 09:50:52;;;;;;;0.00;0.00;;;25.70;99.90;;;;;;5026426;28;20052;-70
2023/06/09 09:53:24;;;;;;;0.00;0.00;;;25.90;99.90;;;;;;5030281;28;20029;-70
2023/06/09 09:55:54;;;;;;;0.00;0.00;;;26.00;99.90;;;;;;5025480;28;20064;-70
2023/06/09 09:58:26;;;;;;;0.00;0.00;;;26.30;99.90;;;;;;5021662;28;20059;-70
2023/06/09 10:00:57;;;;;;;0.00;0.00;;;26.40;99.90;;;;;;5019186;28;20438;-70
2023/06/09 10:03:23;;;;;;;0.00;0.00;;;26.40;99.90;;;;;;5014105;28;20030;-69
2023/06/09 10:05:49;;;;;;;0.00;0.00;;;26.10;99.90;;;;;;5014589;28;20026;-69
2023/06/09 10:08:21;;;;;;;0.00;0.00;;;26.30;99.90;;;;;;5014002;28;20101;-70
2023/06/09 10:10:48;;;;;;;0.00;0.00;;;26.40;99.90;;;;;;5022710;28;20490;-71
2023/06/09 10:13:14;;;;;;;0.00;0.00;;;26.50;99.90;;;;;;5029136;28;20025;-69
2023/06/09 10:15:44;;;;;;;0.00;0.00;;;26.80;99.90;;;;;;5021733;28;20498;-69
2023/06/09 10:18:11;;;;;;;0.00;0.00;;;27.20;99.90;;;;;;5016052;28;20025;-70
2023/06/09 10:20:37;;;;;;;0.00;0.00;;;27.50;99.90;;;;;;5013485;28;20034;-70
2023/06/09 10:23:04;;;;;;;0.00;0.00;;;27.70;99.90;;;;;;5031039;28;20018;-70
2023/06/09 10:25:30;;;;;;;0.00;0.00;;;28.00;99.90;;;;;;5033249;28;20052;-70
2023/06/09 10:27:56;;;;;;;0.00;0.00;;;28.30;99.90;;;;;;5026357;28;20025;-70
2023/06/09 10:30:22;;;;;;;0.00;0.00;;;28.40;99.90;;;;;;5024191;28;20216;-70
2023/06/09 10:33:14;;;;;;;0.00;0.00;;;28.50;99.90;;;;;;5032856;28;20029;-70
2023/06/09 10:44:35;;;;;;;0.00;0.00;;;26.90;99.90;;;;;;5048318;28;20799;-60
2023/06/09 10:52:35;;;;;;;0.00;0.00;;;25.80;99.90;;;;;;5050112;27;62835;-49
2023/06/09 10:55:12;;;;;;;0.00;0.00;;;25.50;99.90;;;;;;5027686;28;20042;-64
2023/06/09 10:57:39;;;;;;;0.00;0.00;;;24.90;99.90;;;;;;5022656;28;68758;-67
2023/06/09 11:00:11;;;;;;;0.00;0.00;;;24.50;99.90;;;;;;5010976;28;20080;-46
2023/06/09 11:02:37;;;;;;;0.00;0.00;;;24.20;99.90;;;;;;5010693;28;20030;-62
2023/06/09 11:05:04;;;;;;;0.00;0.00;;;25.20;99.90;;;;;;5010532;28;20920;-47
2023/06/09 11:09:14;;;;;;;0.00;0.00;;;25.00;99.90;;;;;;5053883;28;20456;-60
2023/06/09 11:14:09;;;;;;;0.00;0.00;;;24.70;99.90;;;;;;5069163;27;20386;-73
2023/06/09 11:17:13;;;;;;;0.00;0.00;;;24.40;99.90;;;;;;5069116;28;20570;-59
2023/06/09 11:19:39;;;;;;;;;;;24.90;99.90;;;;;;5070809;28;20032;-67
2023/06/09 11:22:05;;;;;;;0.00;0.00;;;24.40;99.90;;;;;;5069862;28;19908;-63
2023/06/09 11:24:49;;;;;;;0.00;0.00;;;24.20;99.90;;;;;;5069451;28;20099;-63
2023/06/09 11:27:19;;;;;;;0.00;0.00;;;24.00;99.90;;;;;;5070730;28;20032;-64
2023/06/09 11:30:07;;;;;;;0.08;0.08;;;24.00;99.90;;;;;;5070575;28;20029;-67
2023/06/09 11:32:59;;;;;;;0.10;0.10;;;24.00;99.90;;;;;;5070058;28;20033;-65
2023/06/09 11:35:31;;;;;;;0.10;0.10;;;24.00;99.90;;;;;;5069651;28;20528;-58
2023/06/09 11:38:00;;;;;;;0.00;0.00;;;24.60;99.90;;;;;;5073427;27;20048;-63
2023/06/09 11:40:27;;;;;;;0.00;0.00;;;27.20;99.90;;;;;;5070099;28;20410;-62
2023/06/09 11:42:53;;;;;;;0.00;0.00;;;;;;;;;;5069148;28;20443;-62
2023/06/09 11:45:23;;;;;;;0.10;0.10;;;;;;;;;;5069380;28;20501;-62
2023/06/09 11:47:49;;;;;;;0.00;0.00;;;;;;;;;;5070036;28;20466;-62
2023/06/09 11:50:16;;;;;;;0.00;0.00;;;;;;;;;;5069873;28;20021;-62
2023/06/09 11:52:43;;;;;;;0.05;0.05;;;;;;;;;;5069457;28;20548;-62
2023/06/09 11:55:09;;;;;;;0.00;0.00;;;;;;;;;;5068868;28;20090;-62
2023/06/09 11:57:37;;;;;;;0.00;0.00;;;;;;;;;;5069614;28;20063;-62
2023/06/09 12:00:14;;;;;;;0.00;0.00;;;;;;;;;;5069995;28;20375;-62
2023/06/09 12:02:44;;;;;;;0.10;0.10;;;;;;;;;;5069119;28;20028;-61
2023/06/09 12:05:11;;;;;;;0.05;0.05;;;;;;;;;;5069054;28;20394;-62
2023/06/09 12:07:38;;;;;;;0.10;0.10;;;;;;;;;;5069605;28;20021;-62
2023/06/09 12:10:04;;;;;;;0.00;0.00;;;;;;;;;;5069571;28;20016;-65
2023/06/09 12:12:30;;;;;;;0.00;0.00;;;24.30;99.90;;;;;;5069210;28;20109;-66
2023/06/09 12:14:55;;;;;;;0.10;0.10;;;24.40;99.90;;;;;;5068040;28;20071;-61
2023/06/09 12:18:36;;;;;;;0.00;0.00;;;;;;;;;;5043414;28;20883;-54
2023/06/09 12:21:02;;;;;;;0.00;0.00;;;;;;;;;;5030244;28;20034;-62
2023/06/09 12:23:28;;;;;;;0.00;0.00;;;;;;;;;;5029630;28;20450;-58
2023/06/09 12:25:54;;;;;;;0.00;0.00;;;25.30;72.70;;;;;;5047673;28;20033;-63
2023/06/09 12:28:23;;;;;;;0.00;0.00;;;28.20;66.00;;;;;;5046187;28;20047;-63
2023/06/09 12:30:50;;;;;;;0.00;0.00;;;27.10;39.00;;;;;;5049692;28;20075;-66
2023/06/09 12:33:18;;;;;;;0.00;0.00;;;26.20;40.60;;;;;;5051375;28;20489;-65
2023/06/09 12:35:48;;;;;;;0.00;0.00;;;25.60;41.50;;;;;;5050005;28;20031;-66
2023/06/09 12:38:16;;;;;;;0.00;0.00;;;25.30;41.90;;;;;;5050084;28;20083;-65
2023/06/09 12:40:47;;;;;;;0.00;0.00;;;25.20;42.20;;;;;;5050294;28;20025;-66
2023/06/09 12:43:20;;;;;;;0.00;0.00;;;25.00;42.40;;;;;;5048962;28;20071;-65
2023/06/09 12:45:52;;;;;;;0.10;0.10;;;24.90;42.40;;;;;;5049834;28;20033;-66
2023/06/09 12:48:18;;;;;;;0.00;0.00;;;24.80;42.40;;;;;;5049882;28;20502;-66
2023/06/09 12:50:44;;;;;;;0.00;0.00;;;24.80;42.50;;;;;;5050111;28;20029;-65
2023/06/09 12:53:11;;;;;;;0.10;0.10;;;24.80;43.30;;;;;;5047052;28;20171;-62
2023/06/09 12:55:37;;;;;;;0.00;0.00;;;;;;;;;;5050137;28;20071;-63
2023/06/09 12:58:04;;;;;;;0.00;0.00;;;;;;;;;;5050060;28;20095;-63
2023/06/09 13:52:16;;;;;;;0.00;0.00;;;30.00;99.90;;;;;;5066988;28;20394;-63
2023/06/09 13:54:41;;;;;;;0.00;0.00;;;28.20;99.90;;;;;;5042279;28;20092;-58
2023/06/09 13:57:07;;;;;;;0.00;0.00;;;27.00;99.90;;;;;;5048926;28;20025;-60
2023/06/09 13:59:32;;;;;;;0.00;0.00;;;26.30;99.90;;;;;;5048932;28;20053;-55
2023/06/09 14:01:58;;;;;;;0.00;0.00;;;25.90;99.90;;;;;;5048916;28;20116;-57
2023/06/09 14:04:23;;;;;;;0.00;0.00;;;25.80;99.90;;;;;;5048964;28;20033;-58
2023/06/09 14:06:49;;;;;;;0.00;0.00;;;25.70;99.90;;;;;;5048408;28;20100;-56
2023/06/09 14:09:15;;;;;;;0.00;0.00;;;25.70;99.90;;;;;;5049515;28;20057;-56
2023/06/09 14:11:41;;;;;;;0.00;0.00;;;25.80;99.90;;;;;;5049951;28;20029;-56